sensor_id;sensor_type;location;lat;lon;timestamp;P1;durP1;ratioP1;P2;durP2;ratioP2
63193;SDS011;49289;51.670;5.624;2023-05-07T00:01:06;8.90;;;5.10;;
63193;SDS011;49289;51.670;5.624;2023-05-07T00:02:53;4.90;;;4.50;;
63193;SDS011;49289;51.670;5.624;2023-05-07T00:04:41;6.10;;;5.50;;
63193;SDS011;49289;51.670;5.624;2023-05-07T00:06:29;5.70;;;5.20;;
63193;SDS011;49289;51.670;5.624;2023-05-07T00:08:17;6.80;;;5.40;;
63193;SDS011;49289;51.670;5.624;2023-05-07T00:10:04;5.50;;;5.00;;
63193;SDS011;49289;51.670;5.624;2023-05-07T00:11:53;5.60;;;5.00;;
63193;SDS011;49289;51.670;5.624;2023-05-07T00:13:41;6.60;;;4.80;;
63193;SDS011;49289;51.670;5.624;2023-05-07T00:15:29;6.20;;;5.60;;
63193;SDS011;49289;51.670;5.624;2023-05-07T00:17:17;6.10;;;4.80;;
63193;SDS011;49289;51.670;5.624;2023-05-07T00:19:05;5.50;;;5.00;;
63193;SDS011;49289;51.670;5.624;2023-05-07T00:20:52;5.70;;;5.10;;
63193;SDS011;49289;51.670;5.624;2023-05-07T00:22:41;7.50;;;5.40;;
63193;SDS011;49289;51.670;5.624;2023-05-07T00:24:28;5.90;;;4.90;;
63193;SDS011;49289;51.670;5.624;2023-05-07T00:26:17;6.00;;;5.00;;
63193;SDS011;49289;51.670;5.624;2023-05-07T00:28:05;8.80;;;5.00;;
63193;SDS011;49289;51.670;5.624;2023-05-07T00:29:53;5.70;;;4.90;;
63193;SDS011;49289;51.670;5.624;2023-05-07T00:31:40;6.30;;;4.80;;
63193;SDS011;49289;51.670;5.624;2023-05-07T00:33:28;5.60;;;4.80;;
63193;SDS011;49289;51.670;5.624;2023-05-07T00:35:16;5.70;;;5.20;;
63193;SDS011;49289;51.670;5.624;2023-05-07T00:37:04;6.50;;;4.90;;
63193;SDS011;49289;51.670;5.624;2023-05-07T00:38:53;6.50;;;5.20;;
63193;SDS011;49289;51.670;5.624;2023-05-07T00:40:39;5.50;;;5.00;;
63193;SDS011;49289;51.670;5.624;2023-05-07T00:42:26;5.80;;;5.20;;
63193;SDS011;49289;51.670;5.624;2023-05-07T00:44:13;6.10;;;5.10;;
63193;SDS011;49289;51.670;5.624;2023-05-07T00:46:00;5.40;;;4.90;;
63193;SDS011;49289;51.670;5.624;2023-05-07T00:47:47;7.00;;;5.10;;
63193;SDS011;49289;51.670;5.624;2023-05-07T00:49:35;6.30;;;5.30;;
63193;SDS011;49289;51.670;5.624;2023-05-07T00:51:21;6.80;;;5.30;;
63193;SDS011;49289;51.670;5.624;2023-05-07T00:53:09;5.60;;;5.00;;
63193;SDS011;49289;51.670;5.624;2023-05-07T00:54:56;6.40;;;5.30;;
63193;SDS011;49289;51.670;5.624;2023-05-07T00:56:43;5.70;;;5.20;;
63193;SDS011;49289;51.670;5.624;2023-05-07T00:58:30;5.90;;;5.20;;
63193;SDS011;49289;51.670;5.624;2023-05-07T01:00:18;7.30;;;5.20;;
63193;SDS011;49289;51.670;5.624;2023-05-07T01:02:06;5.80;;;5.20;;
63193;SDS011;49289;51.670;5.624;2023-05-07T01:03:53;6.70;;;4.90;;
63193;SDS011;49289;51.670;5.624;2023-05-07T01:05:40;5.60;;;5.10;;
63193;SDS011;49289;51.670;5.624;2023-05-07T01:07:27;5.50;;;5.00;;
63193;SDS011;49289;51.670;5.624;2023-05-07T01:09:14;5.90;;;5.30;;
63193;SDS011;49289;51.670;5.624;2023-05-07T01:11:02;5.90;;;5.30;;
63193;SDS011;49289;51.670;5.624;2023-05-07T01:12:50;6.20;;;5.30;;
63193;SDS011;49289;51.670;5.624;2023-05-07T01:14:38;6.70;;;5.60;;
63193;SDS011;49289;51.670;5.624;2023-05-07T01:16:26;5.80;;;5.20;;
63193;SDS011;49289;51.670;5.624;2023-05-07T01:18:13;7.40;;;5.50;;
63193;SDS011;49289;51.670;5.624;2023-05-07T01:20:01;7.30;;;5.50;;
63193;SDS011;49289;51.670;5.624;2023-05-07T01:21:51;7.20;;;5.60;;
63193;SDS011;49289;51.670;5.624;2023-05-07T01:23:38;7.50;;;5.70;;
63193;SDS011;49289;51.670;5.624;2023-05-07T01:25:26;8.80;;;6.10;;
63193;SDS011;49289;51.670;5.624;2023-05-07T01:27:14;8.20;;;7.00;;
63193;SDS011;49289;51.670;5.624;2023-05-07T01:29:02;7.20;;;6.10;;
63193;SDS011;49289;51.670;5.624;2023-05-07T01:30:51;9.20;;;6.60;;
63193;SDS011;49289;51.670;5.624;2023-05-07T01:32:39;8.50;;;6.20;;
63193;SDS011;49289;51.670;5.624;2023-05-07T01:34:26;8.00;;;6.60;;
63193;SDS011;49289;51.670;5.624;2023-05-07T01:36:14;7.60;;;6.50;;
63193;SDS011;49289;51.670;5.624;2023-05-07T01:38:02;7.50;;;6.70;;
63193;SDS011;49289;51.670;5.624;2023-05-07T01:39:49;8.00;;;6.40;;
63193;SDS011;49289;51.670;5.624;2023-05-07T01:41:36;7.60;;;6.80;;
63193;SDS011;49289;51.670;5.624;2023-05-07T01:43:23;9.60;;;7.20;;
63193;SDS011;49289;51.670;5.624;2023-05-07T01:45:11;8.00;;;7.00;;
63193;SDS011;49289;51.670;5.624;2023-05-07T01:46:58;10.00;;;7.30;;
63193;SDS011;49289;51.670;5.624;2023-05-07T01:48:45;8.30;;;7.40;;
63193;SDS011;49289;51.670;5.624;2023-05-07T01:50:32;8.00;;;7.20;;
63193;SDS011;49289;51.670;5.624;2023-05-07T01:52:19;9.60;;;7.70;;
63193;SDS011;49289;51.670;5.624;2023-05-07T01:54:06;9.10;;;7.40;;
63193;SDS011;49289;51.670;5.624;2023-05-07T01:55:53;9.30;;;8.00;;
63193;SDS011;49289;51.670;5.624;2023-05-07T01:57:40;10.90;;;8.00;;
63193;SDS011;49289;51.670;5.624;2023-05-07T01:59:27;9.50;;;8.00;;
63193;SDS011;49289;51.670;5.624;2023-05-07T02:01:14;9.60;;;8.60;;
63193;SDS011;49289;51.670;5.624;2023-05-07T02:03:01;10.90;;;8.40;;
63193;SDS011;49289;51.670;5.624;2023-05-07T02:04:49;9.50;;;8.50;;
63193;SDS011;49289;51.670;5.624;2023-05-07T02:06:36;11.30;;;9.00;;
63193;SDS011;49289;51.670;5.624;2023-05-07T02:08:23;11.00;;;8.50;;
63193;SDS011;49289;51.670;5.624;2023-05-07T02:10:11;10.80;;;9.20;;
63193;SDS011;49289;51.670;5.624;2023-05-07T02:11:58;9.80;;;8.50;;
63193;SDS011;49289;51.670;5.624;2023-05-07T02:13:45;10.90;;;8.90;;
63193;SDS011;49289;51.670;5.624;2023-05-07T02:15:32;9.90;;;8.70;;
63193;SDS011;49289;51.670;5.624;2023-05-07T02:17:19;10.10;;;8.90;;
63193;SDS011;49289;51.670;5.624;2023-05-07T02:19:06;12.50;;;9.30;;
63193;SDS011;49289;51.670;5.624;2023-05-07T02:20:53;10.60;;;9.50;;
63193;SDS011;49289;51.670;5.624;2023-05-07T02:22:40;11.30;;;9.00;;
63193;SDS011;49289;51.670;5.624;2023-05-07T02:24:27;12.70;;;8.90;;
63193;SDS011;49289;51.670;5.624;2023-05-07T02:26:14;12.90;;;9.20;;
63193;SDS011;49289;51.670;5.624;2023-05-07T02:28:01;13.10;;;9.40;;
63193;SDS011;49289;51.670;5.624;2023-05-07T02:29:48;12.00;;;9.50;;
63193;SDS011;49289;51.670;5.624;2023-05-07T02:31:35;12.90;;;9.90;;
63193;SDS011;49289;51.670;5.624;2023-05-07T02:33:22;14.40;;;10.20;;
63193;SDS011;49289;51.670;5.624;2023-05-07T02:35:09;11.80;;;9.80;;
63193;SDS011;49289;51.670;5.624;2023-05-07T02:36:57;12.40;;;9.70;;
63193;SDS011;49289;51.670;5.624;2023-05-07T02:38:45;10.80;;;9.20;;
63193;SDS011;49289;51.670;5.624;2023-05-07T02:40:33;11.70;;;9.60;;
63193;SDS011;49289;51.670;5.624;2023-05-07T02:42:21;11.80;;;9.60;;
63193;SDS011;49289;51.670;5.624;2023-05-07T02:44:09;12.30;;;9.90;;
63193;SDS011;49289;51.670;5.624;2023-05-07T02:46:05;12.70;;;9.70;;
63193;SDS011;49289;51.670;5.624;2023-05-07T02:47:52;11.30;;;9.60;;
63193;SDS011;49289;51.670;5.624;2023-05-07T02:49:39;12.70;;;10.30;;
63193;SDS011;49289;51.670;5.624;2023-05-07T02:51:26;12.10;;;9.80;;
63193;SDS011;49289;51.670;5.624;2023-05-07T02:53:13;12.50;;;10.10;;
63193;SDS011;49289;51.670;5.624;2023-05-07T02:55:00;13.30;;;10.00;;
63193;SDS011;49289;51.670;5.624;2023-05-07T02:56:47;13.70;;;10.40;;
63193;SDS011;49289;51.670;5.624;2023-05-07T02:58:34;14.30;;;10.50;;
63193;SDS011;49289;51.670;5.624;2023-05-07T03:00:21;13.90;;;10.10;;
63193;SDS011;49289;51.670;5.624;2023-05-07T03:02:10;12.30;;;10.40;;
63193;SDS011;49289;51.670;5.624;2023-05-07T03:03:58;12.40;;;10.00;;
63193;SDS011;49289;51.670;5.624;2023-05-07T03:05:46;12.00;;;10.10;;
63193;SDS011;49289;51.670;5.624;2023-05-07T03:07:33;13.50;;;9.90;;
63193;SDS011;49289;51.670;5.624;2023-05-07T03:09:21;14.40;;;10.30;;
63193;SDS011;49289;51.670;5.624;2023-05-07T03:11:09;11.50;;;10.30;;
63193;SDS011;49289;51.670;5.624;2023-05-07T03:12:57;12.80;;;11.00;;
63193;SDS011;49289;51.670;5.624;2023-05-07T03:14:45;14.20;;;10.80;;
63193;SDS011;49289;51.670;5.624;2023-05-07T03:16:33;16.10;;;11.00;;
63193;SDS011;49289;51.670;5.624;2023-05-07T03:18:21;13.70;;;11.20;;
63193;SDS011;49289;51.670;5.624;2023-05-07T03:20:10;13.30;;;11.70;;
63193;SDS011;49289;51.670;5.624;2023-05-07T03:21:58;13.50;;;11.10;;
63193;SDS011;49289;51.670;5.624;2023-05-07T03:23:46;13.80;;;10.90;;
63193;SDS011;49289;51.670;5.624;2023-05-07T03:25:34;14.20;;;12.00;;
63193;SDS011;49289;51.670;5.624;2023-05-07T03:27:22;17.00;;;11.30;;
63193;SDS011;49289;51.670;5.624;2023-05-07T03:29:10;14.50;;;12.10;;
63193;SDS011;49289;51.670;5.624;2023-05-07T03:30:57;17.10;;;12.30;;
63193;SDS011;49289;51.670;5.624;2023-05-07T03:32:44;15.00;;;12.30;;
63193;SDS011;49289;51.670;5.624;2023-05-07T03:34:32;20.60;;;12.90;;
63193;SDS011;49289;51.670;5.624;2023-05-07T03:36:20;18.10;;;12.40;;
63193;SDS011;49289;51.670;5.624;2023-05-07T03:38:08;17.90;;;12.90;;
63193;SDS011;49289;51.670;5.624;2023-05-07T03:39:56;17.40;;;13.30;;
63193;SDS011;49289;51.670;5.624;2023-05-07T03:41:44;16.10;;;12.60;;
63193;SDS011;49289;51.670;5.624;2023-05-07T03:43:32;14.40;;;12.30;;
63193;SDS011;49289;51.670;5.624;2023-05-07T03:45:20;16.10;;;13.10;;
63193;SDS011;49289;51.670;5.624;2023-05-07T03:47:08;19.40;;;13.10;;
63193;SDS011;49289;51.670;5.624;2023-05-07T03:48:56;16.90;;;14.00;;
63193;SDS011;49289;51.670;5.624;2023-05-07T03:50:44;16.30;;;13.50;;
63193;SDS011;49289;51.670;5.624;2023-05-07T03:52:32;17.10;;;13.80;;
63193;SDS011;49289;51.670;5.624;2023-05-07T03:54:20;19.20;;;13.60;;
63193;SDS011;49289;51.670;5.624;2023-05-07T03:56:09;17.90;;;14.10;;
63193;SDS011;49289;51.670;5.624;2023-05-07T03:57:57;18.90;;;14.30;;
63193;SDS011;49289;51.670;5.624;2023-05-07T03:59:45;24.20;;;14.50;;
63193;SDS011;49289;51.670;5.624;2023-05-07T04:01:33;17.50;;;14.30;;
63193;SDS011;49289;51.670;5.624;2023-05-07T04:03:21;19.10;;;14.80;;
63193;SDS011;49289;51.670;5.624;2023-05-07T04:05:09;19.60;;;15.20;;
63193;SDS011;49289;51.670;5.624;2023-05-07T04:06:56;19.50;;;14.80;;
63193;SDS011;49289;51.670;5.624;2023-05-07T04:08:43;19.00;;;15.20;;
63193;SDS011;49289;51.670;5.624;2023-05-07T04:10:30;18.00;;;14.90;;
63193;SDS011;49289;51.670;5.624;2023-05-07T04:12:17;19.20;;;15.70;;
63193;SDS011;49289;51.670;5.624;2023-05-07T04:14:04;18.80;;;15.30;;
63193;SDS011;49289;51.670;5.624;2023-05-07T04:15:51;20.70;;;15.50;;
63193;SDS011;49289;51.670;5.624;2023-05-07T04:17:38;22.60;;;16.00;;
63193;SDS011;49289;51.670;5.624;2023-05-07T04:19:26;20.40;;;15.70;;
63193;SDS011;49289;51.670;5.624;2023-05-07T04:21:19;21.60;;;15.90;;
63193;SDS011;49289;51.670;5.624;2023-05-07T04:23:07;21.00;;;16.20;;
63193;SDS011;49289;51.670;5.624;2023-05-07T04:24:55;17.80;;;15.50;;
63193;SDS011;49289;51.670;5.624;2023-05-07T04:26:43;22.10;;;16.20;;
63193;SDS011;49289;51.670;5.624;2023-05-07T04:28:31;19.60;;;15.90;;
63193;SDS011;49289;51.670;5.624;2023-05-07T04:30:19;19.20;;;15.70;;
63193;SDS011;49289;51.670;5.624;2023-05-07T04:32:06;21.20;;;15.80;;
63193;SDS011;49289;51.670;5.624;2023-05-07T04:33:53;20.10;;;16.20;;
63193;SDS011;49289;51.670;5.624;2023-05-07T04:35:41;20.90;;;16.20;;
63193;SDS011;49289;51.670;5.624;2023-05-07T04:37:29;19.90;;;16.50;;
63193;SDS011;49289;51.670;5.624;2023-05-07T04:39:17;21.50;;;17.00;;
63193;SDS011;49289;51.670;5.624;2023-05-07T04:41:04;19.10;;;15.90;;
63193;SDS011;49289;51.670;5.624;2023-05-07T04:42:51;21.60;;;17.00;;
63193;SDS011;49289;51.670;5.624;2023-05-07T04:44:38;20.10;;;16.50;;
63193;SDS011;49289;51.670;5.624;2023-05-07T04:46:25;19.80;;;16.00;;
63193;SDS011;49289;51.670;5.624;2023-05-07T04:48:12;19.20;;;16.20;;
63193;SDS011;49289;51.670;5.624;2023-05-07T04:49:59;19.70;;;15.90;;
63193;SDS011;49289;51.670;5.624;2023-05-07T04:51:46;19.90;;;16.50;;
63193;SDS011;49289;51.670;5.624;2023-05-07T04:53:33;26.10;;;17.20;;
63193;SDS011;49289;51.670;5.624;2023-05-07T04:55:20;20.30;;;16.20;;
63193;SDS011;49289;51.670;5.624;2023-05-07T04:57:08;22.60;;;16.60;;
63193;SDS011;49289;51.670;5.624;2023-05-07T04:58:56;19.40;;;16.70;;
63193;SDS011;49289;51.670;5.624;2023-05-07T05:00:45;21.30;;;16.20;;
63193;SDS011;49289;51.670;5.624;2023-05-07T05:02:33;19.90;;;16.50;;
63193;SDS011;49289;51.670;5.624;2023-05-07T05:04:21;19.80;;;16.50;;
63193;SDS011;49289;51.670;5.624;2023-05-07T05:06:09;21.10;;;15.60;;
63193;SDS011;49289;51.670;5.624;2023-05-07T05:07:56;21.00;;;16.30;;
63193;SDS011;49289;51.670;5.624;2023-05-07T05:09:43;19.60;;;16.10;;
63193;SDS011;49289;51.670;5.624;2023-05-07T05:11:30;19.50;;;16.50;;
63193;SDS011;49289;51.670;5.624;2023-05-07T05:13:17;21.30;;;17.00;;
63193;SDS011;49289;51.670;5.624;2023-05-07T05:15:04;22.60;;;16.20;;
63193;SDS011;49289;51.670;5.624;2023-05-07T05:16:52;20.60;;;16.50;;
63193;SDS011;49289;51.670;5.624;2023-05-07T05:18:39;21.50;;;16.10;;
63193;SDS011;49289;51.670;5.624;2023-05-07T05:20:26;18.70;;;15.90;;
63193;SDS011;49289;51.670;5.624;2023-05-07T05:22:13;20.40;;;16.80;;
63193;SDS011;49289;51.670;5.624;2023-05-07T05:24:00;21.40;;;17.50;;
63193;SDS011;49289;51.670;5.624;2023-05-07T05:25:48;20.50;;;15.80;;
63193;SDS011;49289;51.670;5.624;2023-05-07T05:27:36;19.50;;;16.60;;
63193;SDS011;49289;51.670;5.624;2023-05-07T05:29:24;20.70;;;16.50;;
63193;SDS011;49289;51.670;5.624;2023-05-07T05:31:12;19.60;;;16.30;;
63193;SDS011;49289;51.670;5.624;2023-05-07T05:33:00;21.50;;;16.00;;
63193;SDS011;49289;51.670;5.624;2023-05-07T05:34:49;20.20;;;16.60;;
63193;SDS011;49289;51.670;5.624;2023-05-07T05:36:37;22.20;;;16.60;;
63193;SDS011;49289;51.670;5.624;2023-05-07T05:38:24;22.10;;;16.50;;
63193;SDS011;49289;51.670;5.624;2023-05-07T05:40:12;21.10;;;16.70;;
63193;SDS011;49289;51.670;5.624;2023-05-07T05:42:00;20.80;;;16.80;;
63193;SDS011;49289;51.670;5.624;2023-05-07T05:43:47;21.90;;;16.50;;
63193;SDS011;49289;51.670;5.624;2023-05-07T05:45:35;22.10;;;16.40;;
63193;SDS011;49289;51.670;5.624;2023-05-07T05:47:22;19.40;;;16.20;;
63193;SDS011;49289;51.670;5.624;2023-05-07T05:49:09;18.00;;;15.30;;
63193;SDS011;49289;51.670;5.624;2023-05-07T05:50:56;17.90;;;16.00;;
63193;SDS011;49289;51.670;5.624;2023-05-07T05:52:43;18.90;;;15.90;;
63193;SDS011;49289;51.670;5.624;2023-05-07T05:54:30;22.90;;;16.10;;
63193;SDS011;49289;51.670;5.624;2023-05-07T05:56:17;21.50;;;16.30;;
63193;SDS011;49289;51.670;5.624;2023-05-07T05:58:04;17.50;;;15.20;;
63193;SDS011;49289;51.670;5.624;2023-05-07T05:59:52;20.00;;;16.10;;
63193;SDS011;49289;51.670;5.624;2023-05-07T06:01:40;20.80;;;15.90;;
63193;SDS011;49289;51.670;5.624;2023-05-07T06:03:28;18.30;;;15.00;;
63193;SDS011;49289;51.670;5.624;2023-05-07T06:05:15;20.40;;;15.90;;
63193;SDS011;49289;51.670;5.624;2023-05-07T06:07:03;20.60;;;15.50;;
63193;SDS011;49289;51.670;5.624;2023-05-07T06:08:50;19.10;;;16.10;;
63193;SDS011;49289;51.670;5.624;2023-05-07T06:10:38;21.20;;;16.70;;
63193;SDS011;49289;51.670;5.624;2023-05-07T06:12:26;19.90;;;15.80;;
63193;SDS011;49289;51.670;5.624;2023-05-07T06:14:14;20.50;;;16.10;;
63193;SDS011;49289;51.670;5.624;2023-05-07T06:16:02;20.30;;;16.10;;
63193;SDS011;49289;51.670;5.624;2023-05-07T06:17:50;18.70;;;15.50;;
63193;SDS011;49289;51.670;5.624;2023-05-07T06:19:37;17.80;;;15.50;;
63193;SDS011;49289;51.670;5.624;2023-05-07T06:21:24;20.10;;;15.90;;
63193;SDS011;49289;51.670;5.624;2023-05-07T06:23:11;20.10;;;15.10;;
63193;SDS011;49289;51.670;5.624;2023-05-07T06:24:59;19.10;;;15.50;;
63193;SDS011;49289;51.670;5.624;2023-05-07T06:26:46;20.80;;;15.30;;
63193;SDS011;49289;51.670;5.624;2023-05-07T06:28:33;17.70;;;14.80;;
63193;SDS011;49289;51.670;5.624;2023-05-07T06:30:20;18.90;;;15.10;;
63193;SDS011;49289;51.670;5.624;2023-05-07T06:32:12;20.40;;;16.30;;
63193;SDS011;49289;51.670;5.624;2023-05-07T06:34:00;16.90;;;14.90;;
63193;SDS011;49289;51.670;5.624;2023-05-07T06:35:48;17.70;;;14.70;;
63193;SDS011;49289;51.670;5.624;2023-05-07T06:37:36;20.00;;;14.90;;
63193;SDS011;49289;51.670;5.624;2023-05-07T06:39:23;17.50;;;14.80;;
63193;SDS011;49289;51.670;5.624;2023-05-07T06:41:11;19.50;;;14.70;;
63193;SDS011;49289;51.670;5.624;2023-05-07T06:42:59;19.80;;;15.10;;
63193;SDS011;49289;51.670;5.624;2023-05-07T06:44:47;16.60;;;14.10;;
63193;SDS011;49289;51.670;5.624;2023-05-07T06:46:35;18.10;;;14.60;;
63193;SDS011;49289;51.670;5.624;2023-05-07T06:48:23;18.20;;;14.30;;
63193;SDS011;49289;51.670;5.624;2023-05-07T06:50:12;17.50;;;14.70;;
63193;SDS011;49289;51.670;5.624;2023-05-07T06:52:00;16.60;;;14.00;;
63193;SDS011;49289;51.670;5.624;2023-05-07T06:53:48;17.50;;;13.90;;
63193;SDS011;49289;51.670;5.624;2023-05-07T06:55:35;17.60;;;13.90;;
63193;SDS011;49289;51.670;5.624;2023-05-07T06:57:23;15.30;;;13.50;;
63193;SDS011;49289;51.670;5.624;2023-05-07T06:59:10;15.10;;;13.40;;
63193;SDS011;49289;51.670;5.624;2023-05-07T07:00:57;18.60;;;13.60;;
63193;SDS011;49289;51.670;5.624;2023-05-07T07:02:44;18.50;;;13.60;;
63193;SDS011;49289;51.670;5.624;2023-05-07T07:04:31;17.50;;;13.60;;
63193;SDS011;49289;51.670;5.624;2023-05-07T07:06:18;14.90;;;12.50;;
63193;SDS011;49289;51.670;5.624;2023-05-07T07:08:05;15.30;;;12.50;;
63193;SDS011;49289;51.670;5.624;2023-05-07T07:09:52;14.80;;;12.90;;
63193;SDS011;49289;51.670;5.624;2023-05-07T07:11:39;17.10;;;13.60;;
63193;SDS011;49289;51.670;5.624;2023-05-07T07:13:24;15.60;;;13.30;;
63193;SDS011;49289;51.670;5.624;2023-05-07T07:15:12;17.00;;;14.40;;
63193;SDS011;49289;51.670;5.624;2023-05-07T07:16:59;15.50;;;13.40;;
63193;SDS011;49289;51.670;5.624;2023-05-07T07:18:46;16.10;;;13.10;;
63193;SDS011;49289;51.670;5.624;2023-05-07T07:20:33;16.00;;;13.10;;
63193;SDS011;49289;51.670;5.624;2023-05-07T07:22:20;17.90;;;13.90;;
63193;SDS011;49289;51.670;5.624;2023-05-07T07:24:07;16.90;;;13.90;;
63193;SDS011;49289;51.670;5.624;2023-05-07T07:25:55;17.30;;;14.00;;
63193;SDS011;49289;51.670;5.624;2023-05-07T07:27:44;19.60;;;14.20;;
63193;SDS011;49289;51.670;5.624;2023-05-07T07:29:31;16.30;;;13.40;;
63193;SDS011;49289;51.670;5.624;2023-05-07T07:31:19;16.90;;;14.50;;
63193;SDS011;49289;51.670;5.624;2023-05-07T07:33:07;18.10;;;14.00;;
63193;SDS011;49289;51.670;5.624;2023-05-07T07:34:54;16.00;;;14.10;;
63193;SDS011;49289;51.670;5.624;2023-05-07T07:36:41;18.80;;;14.50;;
63193;SDS011;49289;51.670;5.624;2023-05-07T07:38:28;18.80;;;13.50;;
63193;SDS011;49289;51.670;5.624;2023-05-07T07:40:17;17.40;;;13.90;;
63193;SDS011;49289;51.670;5.624;2023-05-07T07:42:04;16.40;;;13.90;;
63193;SDS011;49289;51.670;5.624;2023-05-07T07:43:51;16.70;;;13.20;;
63193;SDS011;49289;51.670;5.624;2023-05-07T07:45:38;16.70;;;13.30;;
63193;SDS011;49289;51.670;5.624;2023-05-07T07:47:25;16.10;;;13.10;;
63193;SDS011;49289;51.670;5.624;2023-05-07T07:49:12;16.50;;;13.80;;
63193;SDS011;49289;51.670;5.624;2023-05-07T07:50:59;15.20;;;12.60;;
63193;SDS011;49289;51.670;5.624;2023-05-07T07:52:46;14.30;;;11.80;;
63193;SDS011;49289;51.670;5.624;2023-05-07T07:54:34;14.80;;;12.70;;
63193;SDS011;49289;51.670;5.624;2023-05-07T07:56:23;13.90;;;11.90;;
63193;SDS011;49289;51.670;5.624;2023-05-07T07:58:11;14.20;;;11.70;;
63193;SDS011;49289;51.670;5.624;2023-05-07T07:59:59;18.30;;;12.40;;
63193;SDS011;49289;51.670;5.624;2023-05-07T08:01:47;14.50;;;11.70;;
63193;SDS011;49289;51.670;5.624;2023-05-07T08:03:35;13.80;;;12.00;;
63193;SDS011;49289;51.670;5.624;2023-05-07T08:05:24;16.00;;;12.30;;
63193;SDS011;49289;51.670;5.624;2023-05-07T08:07:10;14.10;;;12.00;;
63193;SDS011;49289;51.670;5.624;2023-05-07T08:08:57;15.10;;;12.50;;
63193;SDS011;49289;51.670;5.624;2023-05-07T08:10:44;13.30;;;11.40;;
63193;SDS011;49289;51.670;5.624;2023-05-07T08:12:31;13.30;;;11.80;;
63193;SDS011;49289;51.670;5.624;2023-05-07T08:14:18;13.40;;;11.20;;
63193;SDS011;49289;51.670;5.624;2023-05-07T08:16:05;12.40;;;10.40;;
63193;SDS011;49289;51.670;5.624;2023-05-07T08:17:52;12.40;;;10.60;;
63193;SDS011;49289;51.670;5.624;2023-05-07T08:19:39;13.80;;;10.20;;
63193;SDS011;49289;51.670;5.624;2023-05-07T08:21:26;13.00;;;10.10;;
63193;SDS011;49289;51.670;5.624;2023-05-07T08:23:13;10.70;;;9.60;;
63193;SDS011;49289;51.670;5.624;2023-05-07T08:25:00;12.80;;;9.30;;
63193;SDS011;49289;51.670;5.624;2023-05-07T08:26:47;12.80;;;9.40;;
63193;SDS011;49289;51.670;5.624;2023-05-07T08:28:34;11.50;;;9.70;;
63193;SDS011;49289;51.670;5.624;2023-05-07T08:30:21;13.70;;;10.30;;
63193;SDS011;49289;51.670;5.624;2023-05-07T08:32:09;11.90;;;10.20;;
63193;SDS011;49289;51.670;5.624;2023-05-07T08:33:58;12.40;;;9.40;;
63193;SDS011;49289;51.670;5.624;2023-05-07T08:35:45;11.70;;;9.50;;
63193;SDS011;49289;51.670;5.624;2023-05-07T08:37:34;12.00;;;10.20;;
63193;SDS011;49289;51.670;5.624;2023-05-07T08:39:21;10.50;;;9.40;;
63193;SDS011;49289;51.670;5.624;2023-05-07T08:41:09;11.80;;;10.50;;
63193;SDS011;49289;51.670;5.624;2023-05-07T08:42:57;11.30;;;10.10;;
63193;SDS011;49289;51.670;5.624;2023-05-07T08:44:45;12.30;;;10.10;;
63193;SDS011;49289;51.670;5.624;2023-05-07T08:46:33;11.20;;;9.90;;
63193;SDS011;49289;51.670;5.624;2023-05-07T08:48:22;10.90;;;9.80;;
63193;SDS011;49289;51.670;5.624;2023-05-07T08:50:11;11.40;;;9.80;;
63193;SDS011;49289;51.670;5.624;2023-05-07T08:51:59;10.50;;;8.90;;
63193;SDS011;49289;51.670;5.624;2023-05-07T08:53:47;16.10;;;9.80;;
63193;SDS011;49289;51.670;5.624;2023-05-07T08:55:35;10.60;;;9.10;;
63193;SDS011;49289;51.670;5.624;2023-05-07T08:57:22;11.40;;;8.90;;
63193;SDS011;49289;51.670;5.624;2023-05-07T08:59:09;12.20;;;9.50;;
63193;SDS011;49289;51.670;5.624;2023-05-07T09:00:56;10.30;;;9.00;;
63193;SDS011;49289;51.670;5.624;2023-05-07T09:02:43;10.40;;;9.30;;
63193;SDS011;49289;51.670;5.624;2023-05-07T09:04:31;10.40;;;9.10;;
63193;SDS011;49289;51.670;5.624;2023-05-07T09:06:19;11.10;;;9.40;;
63193;SDS011;49289;51.670;5.624;2023-05-07T09:08:08;14.50;;;9.30;;
63193;SDS011;49289;51.670;5.624;2023-05-07T09:09:55;10.20;;;8.50;;
63193;SDS011;49289;51.670;5.624;2023-05-07T09:11:42;8.90;;;8.00;;
63193;SDS011;49289;51.670;5.624;2023-05-07T09:13:29;11.80;;;7.90;;
63193;SDS011;49289;51.670;5.624;2023-05-07T09:15:16;7.90;;;7.10;;
63193;SDS011;49289;51.670;5.624;2023-05-07T09:17:03;8.50;;;7.30;;
63193;SDS011;49289;51.670;5.624;2023-05-07T09:18:50;9.50;;;7.40;;
63193;SDS011;49289;51.670;5.624;2023-05-07T09:20:38;10.40;;;7.90;;
63193;SDS011;49289;51.670;5.624;2023-05-07T09:22:26;9.30;;;7.90;;
63193;SDS011;49289;51.670;5.624;2023-05-07T09:24:14;9.70;;;7.90;;
63193;SDS011;49289;51.670;5.624;2023-05-07T09:26:06;8.40;;;7.60;;
63193;SDS011;49289;51.670;5.624;2023-05-07T09:27:52;9.10;;;8.10;;
63193;SDS011;49289;51.670;5.624;2023-05-07T09:29:40;9.80;;;7.80;;
63193;SDS011;49289;51.670;5.624;2023-05-07T09:31:27;8.80;;;7.80;;
63193;SDS011;49289;51.670;5.624;2023-05-07T09:33:15;8.80;;;7.90;;
63193;SDS011;49289;51.670;5.624;2023-05-07T09:35:03;9.20;;;7.90;;
63193;SDS011;49289;51.670;5.624;2023-05-07T09:36:52;10.80;;;8.00;;
63193;SDS011;49289;51.670;5.624;2023-05-07T09:38:40;9.90;;;8.10;;
63193;SDS011;49289;51.670;5.624;2023-05-07T09:40:29;9.40;;;8.40;;
63193;SDS011;49289;51.670;5.624;2023-05-07T09:42:22;9.80;;;8.30;;
63193;SDS011;49289;51.670;5.624;2023-05-07T09:44:08;9.80;;;8.50;;
63193;SDS011;49289;51.670;5.624;2023-05-07T09:45:55;11.80;;;8.10;;
63193;SDS011;49289;51.670;5.624;2023-05-07T09:47:42;10.10;;;8.20;;
63193;SDS011;49289;51.670;5.624;2023-05-07T09:49:30;9.70;;;8.10;;
63193;SDS011;49289;51.670;5.624;2023-05-07T09:51:18;10.10;;;8.70;;
63193;SDS011;49289;51.670;5.624;2023-05-07T09:53:05;10.00;;;7.80;;
63193;SDS011;49289;51.670;5.624;2023-05-07T09:54:53;8.70;;;7.80;;
63193;SDS011;49289;51.670;5.624;2023-05-07T09:56:41;9.40;;;8.30;;
63193;SDS011;49289;51.670;5.624;2023-05-07T09:58:29;9.80;;;7.40;;
63193;SDS011;49289;51.670;5.624;2023-05-07T10:00:19;9.20;;;7.70;;
63193;SDS011;49289;51.670;5.624;2023-05-07T10:02:06;11.20;;;8.40;;
63193;SDS011;49289;51.670;5.624;2023-05-07T10:03:54;10.20;;;8.40;;
63193;SDS011;49289;51.670;5.624;2023-05-07T10:05:42;10.50;;;8.50;;
63193;SDS011;49289;51.670;5.624;2023-05-07T10:07:30;8.40;;;7.50;;
63193;SDS011;49289;51.670;5.624;2023-05-07T10:09:18;8.00;;;7.20;;
63193;SDS011;49289;51.670;5.624;2023-05-07T10:11:07;8.50;;;7.40;;
63193;SDS011;49289;51.670;5.624;2023-05-07T10:12:57;7.70;;;6.90;;
63193;SDS011;49289;51.670;5.624;2023-05-07T10:14:44;8.80;;;7.20;;
63193;SDS011;49289;51.670;5.624;2023-05-07T10:16:31;9.30;;;7.40;;
63193;SDS011;49289;51.670;5.624;2023-05-07T10:18:18;8.40;;;7.40;;
63193;SDS011;49289;51.670;5.624;2023-05-07T10:20:05;9.10;;;7.20;;
63193;SDS011;49289;51.670;5.624;2023-05-07T10:21:54;10.40;;;6.90;;
63193;SDS011;49289;51.670;5.624;2023-05-07T10:23:42;8.50;;;7.40;;
63193;SDS011;49289;51.670;5.624;2023-05-07T10:25:31;9.50;;;7.20;;
63193;SDS011;49289;51.670;5.624;2023-05-07T10:27:19;9.20;;;7.60;;
63193;SDS011;49289;51.670;5.624;2023-05-07T10:29:10;8.70;;;7.50;;
63193;SDS011;49289;51.670;5.624;2023-05-07T10:31:00;9.90;;;7.30;;
63193;SDS011;49289;51.670;5.624;2023-05-07T10:32:48;8.30;;;7.50;;
63193;SDS011;49289;51.670;5.624;2023-05-07T10:34:35;8.00;;;7.00;;
63193;SDS011;49289;51.670;5.624;2023-05-07T10:36:22;8.50;;;7.10;;